<?xml version="1.0" encoding="UTF-8" standalone="no" ?>
<gpx xmlns="http://www.topografix.com/GPX/1/1" xmlns:xsi="http://www.w3.org/2001/XMLSchema-instance" xsi:schemaLocation="http://www.topografix.com/GPX/1/1 http://www.topografix.com/GPX/1/1/gpx.xsd" version="1.1" creator="VisuGPX - https://www.visugpx.com">
  <metadata>
    <name>Belloy-sur-somme 2020-10-28 14:00:53 [Strava]</name>
  </metadata>
  <trk>
    <name><![CDATA[Belloy-sur-somme 2020-10-28 14:00:53 [Strava]_1]]></name>
    <trkseg>
      <trkpt lat="49.96446" lon="2.12528">
        <ele>12.9</ele>
        <time>2020-10-28T13:00:53Z</time>
      </trkpt>
      <trkpt lat="49.96446" lon="2.12528">
        <ele>12.9</ele>
        <time>2020-10-28T13:00:55Z</time>
      </trkpt>
      <trkpt lat="49.96446" lon="2.12528">
        <ele>12.9</ele>
        <time>2020-10-28T13:00:57Z</time>
      </trkpt>
      <trkpt lat="49.96446" lon="2.12528">
        <ele>12.9</ele>
        <time>2020-10-28T13:00:59Z</time>
      </trkpt>
      <trkpt lat="49.96446" lon="2.12528">
        <ele>12.9</ele>
        <time>2020-10-28T13:01:01Z</time>
      </trkpt>
      <trkpt lat="49.96446" lon="2.12528">
        <ele>12.9</ele>
        <time>2020-10-28T13:01:03Z</time>
      </trkpt>
      <trkpt lat="49.96446" lon="2.12528">
        <ele>12.9</ele>
        <time>2020-10-28T13:01:04Z</time>
      </trkpt>
      <trkpt lat="49.96446" lon="2.12528">
        <ele>12.9</ele>
        <time>2020-10-28T13:01:06Z</time>
      </trkpt>
      <trkpt lat="49.96446" lon="2.12528">
        <ele>12.9</ele>
        <time>2020-10-28T13:01:07Z</time>
      </trkpt>
      <trkpt lat="49.96446" lon="2.12528">
        <ele>12.9</ele>
        <time>2020-10-28T13:01:09Z</time>
      </trkpt>
      <trkpt lat="49.96446" lon="2.12528">
        <ele>12.9</ele>
        <time>2020-10-28T13:01:10Z</time>
      </trkpt>
      <trkpt lat="49.96446" lon="2.12528">
        <ele>12.9</ele>
        <time>2020-10-28T13:01:11Z</time>
      </trkpt>
      <trkpt lat="49.96446" lon="2.12528">
        <ele>12.9</ele>
        <time>2020-10-28T13:01:13Z</time>
      </trkpt>
      <trkpt lat="49.96446" lon="2.12528">
        <ele>12.9</ele>
        <time>2020-10-28T13:01:15Z</time>
      </trkpt>
      <trkpt lat="49.96446" lon="2.12528">
        <ele>12.9</ele>
        <time>2020-10-28T13:01:17Z</time>
      </trkpt>
      <trkpt lat="49.96446" lon="2.12528">
        <ele>12.9</ele>
        <time>2020-10-28T13:01:18Z</time>
      </trkpt>
      <trkpt lat="49.96446" lon="2.12528">
        <ele>12.9</ele>
        <time>2020-10-28T13:01:20Z</time>
      </trkpt>
      <trkpt lat="49.96446" lon="2.12528">
        <ele>12.9</ele>
        <time>2020-10-28T13:01:22Z</time>
      </trkpt>
      <trkpt lat="49.96446" lon="2.12528">
        <ele>12.9</ele>
        <time>2020-10-28T13:01:23Z</time>
      </trkpt>
      <trkpt lat="49.96446" lon="2.12528">
        <ele>12.9</ele>
        <time>2020-10-28T13:01:25Z</time>
      </trkpt>
      <trkpt lat="49.96446" lon="2.12528">
        <ele>12.9</ele>
        <time>2020-10-28T13:01:26Z</time>
      </trkpt>
      <trkpt lat="49.96446" lon="2.12528">
        <ele>12.9</ele>
        <time>2020-10-28T13:01:28Z</time>
      </trkpt>
      <trkpt lat="49.96446" lon="2.12528">
        <ele>12.9</ele>
        <time>2020-10-28T13:01:30Z</time>
      </trkpt>
      <trkpt lat="49.96446" lon="2.12528">
        <ele>12.9</ele>
        <time>2020-10-28T13:01:31Z</time>
      </trkpt>
      <trkpt lat="49.96446" lon="2.12528">
        <ele>12.9</ele>
        <time>2020-10-28T13:01:33Z</time>
      </trkpt>
      <trkpt lat="49.96446" lon="2.12528">
        <ele>12.9</ele>
        <time>2020-10-28T13:01:34Z</time>
      </trkpt>
      <trkpt lat="49.96446" lon="2.12528">
        <ele>12.9</ele>
        <time>2020-10-28T13:01:35Z</time>
      </trkpt>
      <trkpt lat="49.96446" lon="2.12528">
        <ele>12.9</ele>
        <time>2020-10-28T13:01:36Z</time>
      </trkpt>
      <trkpt lat="49.96446" lon="2.12528">
        <ele>12.9</ele>
        <time>2020-10-28T13:01:38Z</time>
      </trkpt>
      <trkpt lat="49.96446" lon="2.12528">
        <ele>12.9</ele>
        <time>2020-10-28T13:01:39Z</time>
      </trkpt>
      <trkpt lat="49.96446" lon="2.12528">
        <ele>12.9</ele>
        <time>2020-10-28T13:01:41Z</time>
      </trkpt>
      <trkpt lat="49.96446" lon="2.12528">
        <ele>12.9</ele>
        <time>2020-10-28T13:01:42Z</time>
      </trkpt>
      <trkpt lat="49.96446" lon="2.12528">
        <ele>12.9</ele>
        <time>2020-10-28T13:01:43Z</time>
      </trkpt>
      <trkpt lat="49.96446" lon="2.12528">
        <ele>12.9</ele>
        <time>2020-10-28T13:01:44Z</time>
      </trkpt>
      <trkpt lat="49.96446" lon="2.12528">
        <ele>12.9</ele>
        <time>2020-10-28T13:01:46Z</time>
      </trkpt>
      <trkpt lat="49.96446" lon="2.12528">
        <ele>12.9</ele>
        <time>2020-10-28T13:01:47Z</time>
      </trkpt>
      <trkpt lat="49.96446" lon="2.12528">
        <ele>12.9</ele>
        <time>2020-10-28T13:01:49Z</time>
      </trkpt>
      <trkpt lat="49.96446" lon="2.12528">
        <ele>12.9</ele>
        <time>2020-10-28T13:01:50Z</time>
      </trkpt>
      <trkpt lat="49.96445" lon="2.12529">
        <ele>12.9</ele>
        <time>2020-10-28T13:01:52Z</time>
      </trkpt>
      <trkpt lat="49.96444" lon="2.12529">
        <ele>12.9</ele>
        <time>2020-10-28T13:01:54Z</time>
      </trkpt>
      <trkpt lat="49.96445" lon="2.1253">
        <ele>12.9</ele>
        <time>2020-10-28T13:01:55Z</time>
      </trkpt>
      <trkpt lat="49.96445" lon="2.1253">
        <ele>12.9</ele>
        <time>2020-10-28T13:01:57Z</time>
      </trkpt>
      <trkpt lat="49.96445" lon="2.12529">
        <ele>12.9</ele>
        <time>2020-10-28T13:01:59Z</time>
      </trkpt>
      <trkpt lat="49.96445" lon="2.12529">
        <ele>12.9</ele>
        <time>2020-10-28T13:02:00Z</time>
      </trkpt>
      <trkpt lat="49.96445" lon="2.12529">
        <ele>12.9</ele>
        <time>2020-10-28T13:02:01Z</time>
      </trkpt>
      <trkpt lat="49.96445" lon="2.12529">
        <ele>12.9</ele>
        <time>2020-10-28T13:02:03Z</time>
      </trkpt>
      <trkpt lat="49.96445" lon="2.12529">
        <ele>12.9</ele>
        <time>2020-10-28T13:02:05Z</time>
      </trkpt>
      <trkpt lat="49.96445" lon="2.12529">
        <ele>12.9</ele>
        <time>2020-10-28T13:02:06Z</time>
      </trkpt>
      <trkpt lat="49.96445" lon="2.12529">
        <ele>12.9</ele>
        <time>2020-10-28T13:02:08Z</time>
      </trkpt>
      <trkpt lat="49.96445" lon="2.12529">
        <ele>12.9</ele>
        <time>2020-10-28T13:02:09Z</time>
      </trkpt>
      <trkpt lat="49.96445" lon="2.12529">
        <ele>12.9</ele>
        <time>2020-10-28T13:02:10Z</time>
      </trkpt>
      <trkpt lat="49.96444" lon="2.12529">
        <ele>12.9</ele>
        <time>2020-10-28T13:02:11Z</time>
      </trkpt>
      <trkpt lat="49.96444" lon="2.12529">
        <ele>12.9</ele>
        <time>2020-10-28T13:02:12Z</time>
      </trkpt>
      <trkpt lat="49.96443" lon="2.1253">
        <ele>12.9</ele>
        <time>2020-10-28T13:02:14Z</time>
      </trkpt>
      <trkpt lat="49.96443" lon="2.12531">
        <ele>12.9</ele>
        <time>2020-10-28T13:02:15Z</time>
      </trkpt>
      <trkpt lat="49.96443" lon="2.12533">
        <ele>12.9</ele>
        <time>2020-10-28T13:02:17Z</time>
      </trkpt>
      <trkpt lat="49.96442" lon="2.12538">
        <ele>12.9</ele>
        <time>2020-10-28T13:02:19Z</time>
      </trkpt>
      <trkpt lat="49.96441" lon="2.1254">
        <ele>12.9</ele>
        <time>2020-10-28T13:02:20Z</time>
      </trkpt>
      <trkpt lat="49.9644" lon="2.12542">
        <ele>13</ele>
        <time>2020-10-28T13:02:22Z</time>
      </trkpt>
      <trkpt lat="49.96439" lon="2.12542">
        <ele>13</ele>
        <time>2020-10-28T13:02:23Z</time>
      </trkpt>
      <trkpt lat="49.96438" lon="2.12543">
        <ele>13</ele>
        <time>2020-10-28T13:02:25Z</time>
      </trkpt>
      <trkpt lat="49.96438" lon="2.12543">
        <ele>13</ele>
        <time>2020-10-28T13:02:26Z</time>
      </trkpt>
      <trkpt lat="49.96438" lon="2.12544">
        <ele>13</ele>
        <time>2020-10-28T13:02:28Z</time>
      </trkpt>
      <trkpt lat="49.96438" lon="2.12544">
        <ele>13</ele>
        <time>2020-10-28T13:02:29Z</time>
      </trkpt>
      <trkpt lat="49.96436" lon="2.12546">
        <ele>13</ele>
        <time>2020-10-28T13:02:31Z</time>
      </trkpt>
      <trkpt lat="49.96435" lon="2.12548">
        <ele>13</ele>
        <time>2020-10-28T13:02:32Z</time>
      </trkpt>
      <trkpt lat="49.96431" lon="2.12553">
        <ele>13.1</ele>
        <time>2020-10-28T13:02:34Z</time>
      </trkpt>
      <trkpt lat="49.96429" lon="2.12556">
        <ele>13.1</ele>
        <time>2020-10-28T13:02:36Z</time>
      </trkpt>
      <trkpt lat="49.96426" lon="2.12562">
        <ele>13.2</ele>
        <time>2020-10-28T13:02:38Z</time>
      </trkpt>
      <trkpt lat="49.96424" lon="2.12567">
        <ele>13.2</ele>
        <time>2020-10-28T13:02:40Z</time>
      </trkpt>
      <trkpt lat="49.96423" lon="2.1257">
        <ele>13.2</ele>
        <time>2020-10-28T13:02:41Z</time>
      </trkpt>
      <trkpt lat="49.96422" lon="2.12575">
        <ele>13.3</ele>
        <time>2020-10-28T13:02:43Z</time>
      </trkpt>
      <trkpt lat="49.96421" lon="2.12578">
        <ele>13.3</ele>
        <time>2020-10-28T13:02:44Z</time>
      </trkpt>
      <trkpt lat="49.9642" lon="2.12581">
        <ele>13.3</ele>
        <time>2020-10-28T13:02:46Z</time>
      </trkpt>
      <trkpt lat="49.9642" lon="2.12586">
        <ele>13.4</ele>
        <time>2020-10-28T13:02:48Z</time>
      </trkpt>
      <trkpt lat="49.9642" lon="2.12588">
        <ele>13.4</ele>
        <time>2020-10-28T13:02:49Z</time>
      </trkpt>
      <trkpt lat="49.96421" lon="2.12591">
        <ele>13.4</ele>
        <time>2020-10-28T13:02:51Z</time>
      </trkpt>
      <trkpt lat="49.96421" lon="2.12592">
        <ele>13.4</ele>
        <time>2020-10-28T13:02:52Z</time>
      </trkpt>
      <trkpt lat="49.96422" lon="2.12594">
        <ele>13.4</ele>
        <time>2020-10-28T13:02:53Z</time>
      </trkpt>
      <trkpt lat="49.96423" lon="2.12599">
        <ele>13.5</ele>
        <time>2020-10-28T13:02:55Z</time>
      </trkpt>
      <trkpt lat="49.96424" lon="2.12602">
        <ele>13.5</ele>
        <time>2020-10-28T13:02:56Z</time>
      </trkpt>
      <trkpt lat="49.96424" lon="2.12604">
        <ele>13.5</ele>
        <time>2020-10-28T13:02:57Z</time>
      </trkpt>
      <trkpt lat="49.96425" lon="2.12609">
        <ele>13.5</ele>
        <time>2020-10-28T13:02:59Z</time>
      </trkpt>
      <trkpt lat="49.96425" lon="2.12611">
        <ele>13.5</ele>
        <time>2020-10-28T13:03:00Z</time>
      </trkpt>
      <trkpt lat="49.96426" lon="2.12615">
        <ele>13.6</ele>
        <time>2020-10-28T13:03:02Z</time>
      </trkpt>
      <trkpt lat="49.96427" lon="2.12616">
        <ele>13.6</ele>
        <time>2020-10-28T13:03:03Z</time>
      </trkpt>
      <trkpt lat="49.96428" lon="2.1262">
        <ele>13.6</ele>
        <time>2020-10-28T13:03:05Z</time>
      </trkpt>
      <trkpt lat="49.96429" lon="2.12621">
        <ele>13.6</ele>
        <time>2020-10-28T13:03:06Z</time>
      </trkpt>
      <trkpt lat="49.9643" lon="2.12625">
        <ele>13.7</ele>
        <time>2020-10-28T13:03:08Z</time>
      </trkpt>
      <trkpt lat="49.96432" lon="2.12629">
        <ele>13.7</ele>
        <time>2020-10-28T13:03:10Z</time>
      </trkpt>
      <trkpt lat="49.96432" lon="2.12633">
        <ele>13.7</ele>
        <time>2020-10-28T13:03:12Z</time>
      </trkpt>
      <trkpt lat="49.96433" lon="2.12637">
        <ele>13.8</ele>
        <time>2020-10-28T13:03:14Z</time>
      </trkpt>
      <trkpt lat="49.96434" lon="2.12638">
        <ele>13.8</ele>
        <time>2020-10-28T13:03:15Z</time>
      </trkpt>
      <trkpt lat="49.96435" lon="2.1264">
        <ele>13.8</ele>
        <time>2020-10-28T13:03:17Z</time>
      </trkpt>
      <trkpt lat="49.96428" lon="2.12781">
        <ele>16.6</ele>
        <time>2020-10-28T13:30:03Z</time>
      </trkpt>
      <trkpt lat="49.96246" lon="2.14487">
        <ele>53.2</ele>
        <time>2020-10-28T13:30:04Z</time>
      </trkpt>
      <trkpt lat="49.96244" lon="2.14489">
        <ele>53.1</ele>
        <time>2020-10-28T13:30:05Z</time>
      </trkpt>
      <trkpt lat="49.96243" lon="2.1449">
        <ele>53.1</ele>
        <time>2020-10-28T13:30:06Z</time>
      </trkpt>
      <trkpt lat="49.96242" lon="2.14492">
        <ele>53.1</ele>
        <time>2020-10-28T13:30:07Z</time>
      </trkpt>
      <trkpt lat="49.9624" lon="2.14494">
        <ele>53.1</ele>
        <time>2020-10-28T13:30:09Z</time>
      </trkpt>
      <trkpt lat="49.96239" lon="2.14496">
        <ele>53.1</ele>
        <time>2020-10-28T13:30:11Z</time>
      </trkpt>
      <trkpt lat="49.96238" lon="2.14497">
        <ele>53.1</ele>
        <time>2020-10-28T13:30:13Z</time>
      </trkpt>
      <trkpt lat="49.96236" lon="2.14499">
        <ele>53.1</ele>
        <time>2020-10-28T13:30:15Z</time>
      </trkpt>
      <trkpt lat="49.96235" lon="2.14501">
        <ele>53.1</ele>
        <time>2020-10-28T13:30:17Z</time>
      </trkpt>
      <trkpt lat="49.96234" lon="2.14503">
        <ele>53.1</ele>
        <time>2020-10-28T13:30:19Z</time>
      </trkpt>
      <trkpt lat="49.96233" lon="2.14505">
        <ele>53.1</ele>
        <time>2020-10-28T13:30:20Z</time>
      </trkpt>
      <trkpt lat="49.96232" lon="2.14506">
        <ele>53</ele>
        <time>2020-10-28T13:30:21Z</time>
      </trkpt>
      <trkpt lat="49.96231" lon="2.14507">
        <ele>53</ele>
        <time>2020-10-28T13:30:22Z</time>
      </trkpt>
      <trkpt lat="49.9623" lon="2.14509">
        <ele>53</ele>
        <time>2020-10-28T13:30:24Z</time>
      </trkpt>
      <trkpt lat="49.96228" lon="2.14512">
        <ele>53</ele>
        <time>2020-10-28T13:30:26Z</time>
      </trkpt>
      <trkpt lat="49.95973" lon="2.14662">
        <ele>41.2</ele>
        <time>2020-10-28T13:37:13Z</time>
      </trkpt>
      <trkpt lat="49.95972" lon="2.14664">
        <ele>41.2</ele>
        <time>2020-10-28T13:37:15Z</time>
      </trkpt>
      <trkpt lat="49.95971" lon="2.14665">
        <ele>41.2</ele>
        <time>2020-10-28T13:37:16Z</time>
      </trkpt>
      <trkpt lat="49.9597" lon="2.14666">
        <ele>41.2</ele>
        <time>2020-10-28T13:37:18Z</time>
      </trkpt>
      <trkpt lat="49.95969" lon="2.14668">
        <ele>41.2</ele>
        <time>2020-10-28T13:37:20Z</time>
      </trkpt>
      <trkpt lat="49.95968" lon="2.14668">
        <ele>41.2</ele>
        <time>2020-10-28T13:37:22Z</time>
      </trkpt>
      <trkpt lat="49.95967" lon="2.14669">
        <ele>41.2</ele>
        <time>2020-10-28T13:37:23Z</time>
      </trkpt>
      <trkpt lat="49.95965" lon="2.14672">
        <ele>41.2</ele>
        <time>2020-10-28T13:37:25Z</time>
      </trkpt>
      <trkpt lat="49.95964" lon="2.14674">
        <ele>41.2</ele>
        <time>2020-10-28T13:37:27Z</time>
      </trkpt>
      <trkpt lat="49.95963" lon="2.14676">
        <ele>41.2</ele>
        <time>2020-10-28T13:37:29Z</time>
      </trkpt>
      <trkpt lat="49.95962" lon="2.14677">
        <ele>41.2</ele>
        <time>2020-10-28T13:37:30Z</time>
      </trkpt>
      <trkpt lat="49.95961" lon="2.14679">
        <ele>41.2</ele>
        <time>2020-10-28T13:37:32Z</time>
      </trkpt>
      <trkpt lat="49.9596" lon="2.1468">
        <ele>41.2</ele>
        <time>2020-10-28T13:37:33Z</time>
      </trkpt>
      <trkpt lat="49.95959" lon="2.14682">
        <ele>41.2</ele>
        <time>2020-10-28T13:37:35Z</time>
      </trkpt>
      <trkpt lat="49.9509" lon="2.16182">
        <ele>22</ele>
        <time>2020-10-28T14:05:06Z</time>
      </trkpt>
      <trkpt lat="49.9509" lon="2.16182">
        <ele>22</ele>
        <time>2020-10-28T14:05:07Z</time>
      </trkpt>
      <trkpt lat="49.9509" lon="2.16182">
        <ele>22</ele>
        <time>2020-10-28T14:05:09Z</time>
      </trkpt>
      <trkpt lat="49.9509" lon="2.16182">
        <ele>22</ele>
        <time>2020-10-28T14:05:10Z</time>
      </trkpt>
      <trkpt lat="49.9509" lon="2.16182">
        <ele>22</ele>
        <time>2020-10-28T14:05:12Z</time>
      </trkpt>
      <trkpt lat="49.94618" lon="2.14522">
        <ele>14.9</ele>
        <time>2020-10-28T14:32:42Z</time>
      </trkpt>
      <trkpt lat="49.94617" lon="2.14519">
        <ele>14.9</ele>
        <time>2020-10-28T14:32:44Z</time>
      </trkpt>
      <trkpt lat="49.94617" lon="2.14515">
        <ele>14.9</ele>
        <time>2020-10-28T14:32:46Z</time>
      </trkpt>
      <trkpt lat="49.94617" lon="2.14514">
        <ele>14.9</ele>
        <time>2020-10-28T14:32:47Z</time>
      </trkpt>
      <trkpt lat="49.95545" lon="2.12122">
        <ele>13.6</ele>
        <time>2020-10-28T15:00:33Z</time>
      </trkpt>
      <trkpt lat="49.95546" lon="2.12118">
        <ele>13.6</ele>
        <time>2020-10-28T15:00:35Z</time>
      </trkpt>
      <trkpt lat="49.95546" lon="2.12117">
        <ele>13.6</ele>
        <time>2020-10-28T15:00:36Z</time>
      </trkpt>
      <trkpt lat="49.95546" lon="2.12115">
        <ele>13.6</ele>
        <time>2020-10-28T15:00:37Z</time>
      </trkpt>
      <trkpt lat="49.95546" lon="2.12112">
        <ele>13.6</ele>
        <time>2020-10-28T15:00:39Z</time>
      </trkpt>
      <trkpt lat="49.96332" lon="2.11884">
        <ele>12.7</ele>
        <time>2020-10-28T15:28:02Z</time>
      </trkpt>
      <trkpt lat="49.96331" lon="2.11886">
        <ele>12.7</ele>
        <time>2020-10-28T15:28:04Z</time>
      </trkpt>
      <trkpt lat="49.9633" lon="2.11889">
        <ele>12.7</ele>
        <time>2020-10-28T15:28:06Z</time>
      </trkpt>
      <trkpt lat="49.96329" lon="2.11889">
        <ele>12.7</ele>
        <time>2020-10-28T15:28:07Z</time>
      </trkpt>
      <trkpt lat="49.96329" lon="2.1189">
        <ele>12.7</ele>
        <time>2020-10-28T15:28:08Z</time>
      </trkpt>
      <trkpt lat="49.96462" lon="2.12501">
        <ele>13.1</ele>
        <time>2020-10-28T15:42:09Z</time>
      </trkpt>
      <trkpt lat="49.96462" lon="2.12501">
        <ele>13.1</ele>
        <time>2020-10-28T15:42:11Z</time>
      </trkpt>
      <trkpt lat="49.96462" lon="2.12501">
        <ele>13.1</ele>
        <time>2020-10-28T15:42:12Z</time>
      </trkpt>
      <trkpt lat="49.96462" lon="2.12501">
        <ele>13.1</ele>
        <time>2020-10-28T15:42:13Z</time>
      </trkpt>
      <trkpt lat="49.96462" lon="2.12501">
        <ele>13.1</ele>
        <time>2020-10-28T15:42:14Z</time>
      </trkpt>
      <trkpt lat="49.96462" lon="2.12501">
        <ele>13.1</ele>
        <time>2020-10-28T15:42:15Z</time>
      </trkpt>
      <trkpt lat="49.96462" lon="2.12501">
        <ele>13.1</ele>
        <time>2020-10-28T15:42:17Z</time>
      </trkpt>
    </trkseg>
  </trk>
</gpx>